createdAt,value
2018-09-01T00:02:27.264Z,99.90
2018-09-01T00:04:55.730Z,99.90
2018-09-01T00:07:24.008Z,99.90
2018-09-01T00:09:52.253Z,99.90
2018-09-01T00:12:20.519Z,99.90
2018-09-01T00:14:48.776Z,99.90
2018-09-01T00:17:22.441Z,99.90
2018-09-01T00:19:50.688Z,99.90
2018-09-01T00:22:18.947Z,99.90
2018-09-01T00:24:47.211Z,99.90
2018-09-01T00:27:15.462Z,99.90
2018-09-01T00:29:43.702Z,99.90
2018-09-01T00:32:11.961Z,99.90
2018-09-01T00:34:40.228Z,99.90
2018-09-01T00:37:08.499Z,99.90
2018-09-01T00:39:42.273Z,99.90
2018-09-01T00:42:10.520Z,99.90
2018-09-01T00:44:38.782Z,99.90
2018-09-01T00:47:07.043Z,99.90
2018-09-01T00:49:35.315Z,99.90
2018-09-01T00:52:03.680Z,99.90
2018-09-01T00:54:32.074Z,99.90
2018-09-01T00:57:00.338Z,99.90
2018-09-01T00:59:28.578Z,99.90
2018-09-01T01:01:56.915Z,99.90
2018-09-01T01:04:25.188Z,99.90
2018-09-01T01:06:53.456Z,99.90
2018-09-01T01:09:21.714Z,99.90
2018-09-01T01:11:50.103Z,99.90
2018-09-01T01:14:18.475Z,99.90
2018-09-01T01:16:47.106Z,99.90
2018-09-01T01:19:15.361Z,99.90
2018-09-01T01:21:43.626Z,99.90
2018-09-01T01:24:11.891Z,99.90
2018-09-01T01:26:40.175Z,99.90
2018-09-01T01:29:08.449Z,99.90
2018-09-01T01:31:36.783Z,99.90
2018-09-01T01:34:05.220Z,99.90
2018-09-01T01:36:33.496Z,99.90
2018-09-01T01:39:01.769Z,99.90
2018-09-01T01:41:30.019Z,99.90
2018-09-01T01:43:58.268Z,99.90
2018-09-01T01:46:26.528Z,99.90
2018-09-01T01:48:54.792Z,99.90
2018-09-01T01:51:23.046Z,99.90
2018-09-01T01:53:51.314Z,99.90
2018-09-01T01:56:19.564Z,99.90
2018-09-01T01:58:47.802Z,99.90
2018-09-01T02:01:16.068Z,99.90
2018-09-01T02:03:44.311Z,99.90
2018-09-01T02:06:12.555Z,99.90
2018-09-01T02:08:40.799Z,99.90
2018-09-01T02:11:09.050Z,99.90
2018-09-01T02:13:37.296Z,99.90
2018-09-01T02:16:05.666Z,99.90
2018-09-01T02:18:33.923Z,99.90
2018-09-01T02:21:02.188Z,99.90
2018-09-01T02:23:30.446Z,99.90
2018-09-01T02:25:58.726Z,99.90
2018-09-01T02:28:26.999Z,99.90
2018-09-01T02:30:55.298Z,99.90
2018-09-01T02:33:23.569Z,99.90
2018-09-01T02:35:51.880Z,99.90
2018-09-01T02:38:20.150Z,99.90
2018-09-01T02:40:48.403Z,99.90
2018-09-01T02:43:16.659Z,99.90
2018-09-01T02:45:44.923Z,99.90
2018-09-01T02:48:13.219Z,99.90
2018-09-01T02:50:41.523Z,99.90
2018-09-01T02:53:09.784Z,99.90
2018-09-01T02:55:38.034Z,99.90
2018-09-01T02:58:06.297Z,99.90
2018-09-01T03:00:37.637Z,99.90
2018-09-01T03:03:05.901Z,99.90
2018-09-01T03:05:34.158Z,99.90
2018-09-01T03:08:03.138Z,99.90
2018-09-01T03:10:31.386Z,99.90
2018-09-01T03:12:59.645Z,99.90
2018-09-01T03:15:27.891Z,99.90
2018-09-01T03:17:56.138Z,99.90
2018-09-01T03:20:24.417Z,99.90
2018-09-01T03:22:52.675Z,99.90
2018-09-01T03:25:20.918Z,99.90
2018-09-01T03:27:49.178Z,99.90
2018-09-01T03:30:17.427Z,99.90
2018-09-01T03:32:45.695Z,99.90
2018-09-01T03:35:13.946Z,99.90
2018-09-01T03:37:42.207Z,99.90
2018-09-01T03:40:10.475Z,99.90
2018-09-01T03:42:38.722Z,99.90
2018-09-01T03:45:06.970Z,99.90
2018-09-01T03:47:35.234Z,99.90
2018-09-01T03:50:03.481Z,99.90
2018-09-01T03:52:31.738Z,99.90
2018-09-01T03:55:00.001Z,99.90
2018-09-01T03:57:28.258Z,99.90
2018-09-01T03:59:56.516Z,99.90
2018-09-01T04:02:24.776Z,99.90
2018-09-01T04:04:53.037Z,99.90
2018-09-01T04:07:21.318Z,99.90
2018-09-01T04:09:49.603Z,99.90
2018-09-01T04:12:17.861Z,99.90
2018-09-01T04:14:46.154Z,99.90
2018-09-01T04:17:14.411Z,99.90
2018-09-01T04:19:42.774Z,99.90
2018-09-01T04:22:11.077Z,99.90
2018-09-01T04:24:39.350Z,99.90
2018-09-01T04:27:07.612Z,99.90
2018-09-01T04:29:35.878Z,99.90
2018-09-01T04:32:04.238Z,99.90
2018-09-01T04:34:32.459Z,99.90
2018-09-01T04:37:00.714Z,99.90
2018-09-01T04:39:28.975Z,99.90
2018-09-01T04:41:57.338Z,99.90
2018-09-01T04:44:25.672Z,99.90
2018-09-01T04:46:53.994Z,99.90
2018-09-01T04:49:22.234Z,99.90
2018-09-01T04:51:50.499Z,99.90
2018-09-01T04:54:18.797Z,99.90
2018-09-01T04:56:47.739Z,99.90
2018-09-01T04:59:16.065Z,99.90
2018-09-01T05:01:44.319Z,99.90
2018-09-01T05:04:12.580Z,99.90
2018-09-01T05:06:40.848Z,99.90
2018-09-01T05:09:09.106Z,99.90
2018-09-01T05:11:37.353Z,99.90
2018-09-01T05:14:05.603Z,99.90
2018-09-01T05:16:33.893Z,99.90
2018-09-01T05:19:02.355Z,99.90
2018-09-01T05:21:30.624Z,99.90
2018-09-01T05:23:58.961Z,99.90
2018-09-01T05:26:27.154Z,99.90
2018-09-01T05:28:55.429Z,99.90
2018-09-01T05:31:23.692Z,99.90
2018-09-01T05:33:52.791Z,99.90
2018-09-01T05:36:21.089Z,99.90
2018-09-01T05:38:49.374Z,99.90
2018-09-01T05:41:17.642Z,99.90
2018-09-01T05:43:45.979Z,99.90
2018-09-01T05:46:14.180Z,99.90
2018-09-01T05:48:42.455Z,99.90
2018-09-01T05:51:10.714Z,99.90
2018-09-01T05:53:38.982Z,99.90
2018-09-01T05:56:07.431Z,99.90
2018-09-01T05:58:35.706Z,99.90
2018-09-01T06:01:04.010Z,99.90
2018-09-01T06:03:32.290Z,99.90
2018-09-01T06:06:00.700Z,99.90
2018-09-01T06:08:28.891Z,99.90
2018-09-01T06:10:57.150Z,99.90
2018-09-01T06:13:25.447Z,99.90
2018-09-01T06:15:53.707Z,99.90
2018-09-01T06:18:21.961Z,99.90
2018-09-01T06:20:50.263Z,99.90
2018-09-01T06:23:18.533Z,99.90
2018-09-01T06:25:46.786Z,99.90
2018-09-01T06:28:20.664Z,99.90
2018-09-01T06:30:51.113Z,99.90
2018-09-01T06:33:20.127Z,99.90
2018-09-01T06:35:49.863Z,99.90
2018-09-01T06:38:18.192Z,99.90
2018-09-01T06:40:46.951Z,99.90
2018-09-01T06:43:15.235Z,99.90
2018-09-01T06:45:43.539Z,99.90
2018-09-01T06:48:11.807Z,99.90
2018-09-01T06:50:41.100Z,99.90
2018-09-01T06:53:09.542Z,99.90
2018-09-01T06:55:38.203Z,99.90
2018-09-01T06:58:06.493Z,99.90
2018-09-01T07:00:34.781Z,99.90
2018-09-01T07:03:03.088Z,99.90
2018-09-01T07:05:31.395Z,99.90
2018-09-01T07:07:59.737Z,99.90
2018-09-01T07:10:28.016Z,99.90
2018-09-01T07:12:56.273Z,99.90
2018-09-01T07:15:25.983Z,99.90
2018-09-01T07:17:54.267Z,99.00
2018-09-01T07:20:22.638Z,98.80
2018-09-01T07:22:50.904Z,98.90
2018-09-01T07:25:19.182Z,98.70
2018-09-01T07:27:47.439Z,96.70
2018-09-01T07:30:16.993Z,95.60
2018-09-01T07:32:45.489Z,91.10
2018-09-01T07:35:13.827Z,80.40
2018-09-01T07:37:42.666Z,69.00
2018-09-01T07:40:11.071Z,58.60
2018-09-01T07:42:40.302Z,52.70
2018-09-01T07:45:09.225Z,48.20
2018-09-01T07:47:37.597Z,43.00
2018-09-01T07:50:06.633Z,38.50
2018-09-01T07:52:35.049Z,37.30
2018-09-01T07:55:03.436Z,35.10
2018-09-01T07:57:32.101Z,33.30
2018-09-01T08:00:00.350Z,30.60
2018-09-01T08:02:28.663Z,31.60
2018-09-01T08:04:56.946Z,29.70
2018-09-01T08:07:25.431Z,29.20
2018-09-01T08:09:53.734Z,29.00
2018-09-01T08:12:22.131Z,27.50
2018-09-01T08:14:50.416Z,26.90
2018-09-01T08:17:18.749Z,26.70
2018-09-01T08:19:47.006Z,27.10
2018-09-01T08:22:15.283Z,27.50
2018-09-01T08:24:45.104Z,28.10
2018-09-01T08:27:13.484Z,26.70
2018-09-01T08:29:41.741Z,27.50
2018-09-01T08:32:10.011Z,28.30
2018-09-01T08:34:38.290Z,27.60
2018-09-01T08:37:06.578Z,27.20
2018-09-01T08:39:34.826Z,26.80
2018-09-01T08:42:03.163Z,25.90
2018-09-01T08:44:31.460Z,26.10
2018-09-01T08:46:59.804Z,25.80
2018-09-01T08:49:28.145Z,25.90
2018-09-01T08:51:56.451Z,25.70
2018-09-01T08:54:24.785Z,26.10
2018-09-01T08:56:53.244Z,26.80
2018-09-01T08:59:21.506Z,26.40
2018-09-01T09:01:49.809Z,26.00
2018-09-01T09:04:18.055Z,27.00
2018-09-01T09:06:46.719Z,25.90
2018-09-01T09:09:15.091Z,25.80
2018-09-01T09:11:43.382Z,25.60
2018-09-01T09:14:11.653Z,25.40
2018-09-01T09:16:39.928Z,25.70
2018-09-01T09:19:08.239Z,25.30
2018-09-01T09:21:36.506Z,25.00
2018-09-01T09:24:04.758Z,26.10
2018-09-01T09:26:33.037Z,26.90
2018-09-01T09:29:01.318Z,27.30
2018-09-01T09:31:29.608Z,27.90
2018-09-01T09:33:58.029Z,28.30
2018-09-01T09:36:26.298Z,27.90
2018-09-01T09:38:54.590Z,26.90
2018-09-01T09:41:22.897Z,26.00
2018-09-01T09:43:51.178Z,26.40
2018-09-01T09:46:19.649Z,25.60
2018-09-01T09:48:48.010Z,25.20
2018-09-01T09:51:16.329Z,24.80
2018-09-01T09:53:44.619Z,24.90
2018-09-01T09:56:12.943Z,25.30
2018-09-01T09:58:42.618Z,25.90
2018-09-01T10:01:16.418Z,27.20
2018-09-01T10:03:44.708Z,26.70
2018-09-01T10:06:13.054Z,26.70
2018-09-01T10:08:41.366Z,28.10
2018-09-01T10:11:09.781Z,27.80
2018-09-01T10:13:37.921Z,26.60
2018-09-01T10:16:06.354Z,26.40
2018-09-01T10:18:34.650Z,27.40
2018-09-01T10:21:03.001Z,27.00
2018-09-01T10:23:31.263Z,27.10
2018-09-01T10:25:59.586Z,27.20
2018-09-01T10:28:27.896Z,28.30
2018-09-01T10:30:56.200Z,29.30
2018-09-01T10:33:24.476Z,31.20
2018-09-01T10:35:53.461Z,31.80
2018-09-01T10:38:22.237Z,31.80
2018-09-01T10:40:50.480Z,31.90
2018-09-01T10:43:18.749Z,33.40
2018-09-01T10:45:47.113Z,32.40
2018-09-01T10:48:17.544Z,30.30
2018-09-01T10:50:47.151Z,30.00
2018-09-01T10:53:15.472Z,29.40
2018-09-01T10:55:43.854Z,30.20
2018-09-01T10:58:12.131Z,30.50
2018-09-01T11:00:40.415Z,30.50
2018-09-01T11:03:08.723Z,30.00
2018-09-01T11:05:37.013Z,29.80
2018-09-01T11:08:05.611Z,29.40
2018-09-01T11:10:33.883Z,29.70
2018-09-01T11:13:02.160Z,29.50
2018-09-01T11:15:30.445Z,29.40
2018-09-01T11:17:58.762Z,29.90
2018-09-01T11:20:27.054Z,30.70
2018-09-01T11:22:56.435Z,31.20
2018-09-01T11:25:24.853Z,31.40
2018-09-01T11:27:53.316Z,32.50
2018-09-01T11:30:21.511Z,33.60
2018-09-01T11:32:49.764Z,33.10
2018-09-01T11:35:18.089Z,32.70
2018-09-01T11:37:46.975Z,32.10
2018-09-01T11:40:15.297Z,32.30
2018-09-01T11:42:45.629Z,33.40
2018-09-01T11:45:13.815Z,33.20
2018-09-01T11:47:42.095Z,32.60
2018-09-01T11:50:10.431Z,33.10
2018-09-01T11:52:38.718Z,34.30
2018-09-01T11:55:07.483Z,34.10
2018-09-01T11:57:35.797Z,35.70
2018-09-01T12:00:04.189Z,34.90
2018-09-01T12:02:32.855Z,35.40
2018-09-01T12:05:01.123Z,34.80
2018-09-01T12:07:29.511Z,35.50
2018-09-01T12:09:57.888Z,36.10
2018-09-01T12:12:26.412Z,35.40
2018-09-01T12:14:54.675Z,35.80
2018-09-01T12:17:24.076Z,35.80
2018-09-01T12:19:52.344Z,35.80
2018-09-01T12:22:20.716Z,36.50
2018-09-01T12:24:48.918Z,36.90
2018-09-01T12:27:17.184Z,37.30
2018-09-01T12:29:45.446Z,37.20
2018-09-01T12:32:13.844Z,36.50
2018-09-01T12:34:42.107Z,37.10
2018-09-01T12:37:10.435Z,37.20
2018-09-01T12:39:38.757Z,38.20
2018-09-01T12:42:07.972Z,37.70
2018-09-01T12:44:36.772Z,38.20
2018-09-01T12:47:05.030Z,37.90
2018-09-01T12:49:33.318Z,37.30
2018-09-01T12:52:01.578Z,37.40
2018-09-01T12:54:29.913Z,36.90
2018-09-01T12:56:58.159Z,37.10
2018-09-01T12:59:26.440Z,37.00
2018-09-01T13:01:54.705Z,37.40
2018-09-01T13:04:23.095Z,37.70
2018-09-01T13:06:51.397Z,37.60
2018-09-01T13:09:19.662Z,37.60
2018-09-01T13:11:50.084Z,38.10
2018-09-01T13:14:18.543Z,37.20
2018-09-01T13:16:48.644Z,38.00
2018-09-01T13:19:16.918Z,38.20
2018-09-01T13:21:45.261Z,38.30
2018-09-01T13:24:14.059Z,38.10
2018-09-01T13:26:42.391Z,38.30
2018-09-01T13:29:11.094Z,37.90
2018-09-01T13:31:39.404Z,37.30
2018-09-01T13:34:07.778Z,37.00
2018-09-01T13:36:36.066Z,36.10
2018-09-01T13:39:05.961Z,35.30
2018-09-01T13:41:34.257Z,34.90
2018-09-01T13:44:02.530Z,34.00
2018-09-01T13:46:30.934Z,34.40
2018-09-01T13:48:59.351Z,35.30
2018-09-01T13:51:27.630Z,36.20
2018-09-01T13:53:55.900Z,36.40
2018-09-01T13:56:24.205Z,36.70
2018-09-01T13:58:52.501Z,37.10
2018-09-01T14:01:20.805Z,38.10
2018-09-01T14:03:49.301Z,38.40
2018-09-01T14:06:17.673Z,39.50
2018-09-01T14:08:45.933Z,38.90
2018-09-01T14:11:14.281Z,39.40
2018-09-01T14:13:42.556Z,40.00
2018-09-01T14:16:10.943Z,40.70
2018-09-01T14:18:39.250Z,41.20
2018-09-01T14:21:07.587Z,41.40
2018-09-01T14:23:35.814Z,42.30
2018-09-01T14:26:05.295Z,41.90
2018-09-01T14:28:33.697Z,42.40
2018-09-01T14:31:02.012Z,42.20
2018-09-01T14:33:30.432Z,42.50
2018-09-01T14:35:58.724Z,42.40
2018-09-01T14:38:27.143Z,42.40
2018-09-01T14:40:55.367Z,42.40
2018-09-01T14:43:23.617Z,42.70
2018-09-01T14:45:51.881Z,43.40
2018-09-01T14:48:20.319Z,43.60
2018-09-01T14:50:48.508Z,44.10
2018-09-01T14:53:16.806Z,44.30
2018-09-01T14:55:45.040Z,44.10
2018-09-01T14:58:13.291Z,44.40
2018-09-01T15:00:41.551Z,44.40
2018-09-01T15:03:09.794Z,44.60
2018-09-01T15:05:38.077Z,44.90
2018-09-01T15:08:06.454Z,44.90
2018-09-01T15:10:34.692Z,44.50
2018-09-01T15:13:02.931Z,45.10
2018-09-01T15:15:31.314Z,44.90
2018-09-01T15:17:59.566Z,44.30
2018-09-01T15:20:27.829Z,45.00
2018-09-01T15:22:56.079Z,44.50
2018-09-01T15:25:24.422Z,44.80
2018-09-01T15:27:52.675Z,44.40
2018-09-01T15:30:20.939Z,44.60
2018-09-01T15:32:49.210Z,44.80
2018-09-01T15:35:17.464Z,44.90
2018-09-01T15:37:45.706Z,45.20
2018-09-01T15:40:13.970Z,44.90
2018-09-01T15:42:42.210Z,44.90
2018-09-01T15:45:10.454Z,45.00
2018-09-01T15:47:38.710Z,45.10
2018-09-01T15:50:06.974Z,44.90
2018-09-01T15:52:35.214Z,45.20
2018-09-01T15:55:03.521Z,45.20
2018-09-01T15:57:31.816Z,45.20
2018-09-01T16:00:00.094Z,45.20
2018-09-01T16:02:28.346Z,45.90
2018-09-01T16:04:56.613Z,46.50
2018-09-01T16:07:24.876Z,46.40
2018-09-01T16:09:53.150Z,46.20
2018-09-01T16:12:21.410Z,46.80
2018-09-01T16:14:49.670Z,47.00
2018-09-01T16:17:17.963Z,47.10
2018-09-01T16:19:46.233Z,47.30
2018-09-01T16:22:14.692Z,47.40
2018-09-01T16:24:43.066Z,47.50
2018-09-01T16:27:11.274Z,47.80
2018-09-01T16:29:39.546Z,47.80
2018-09-01T16:32:07.950Z,48.30
2018-09-01T16:34:36.486Z,48.80
2018-09-01T16:37:04.929Z,48.50
2018-09-01T16:39:33.443Z,48.90
2018-09-01T16:42:01.712Z,49.10
2018-09-01T16:44:29.987Z,49.20
2018-09-01T16:46:58.271Z,49.40
2018-09-01T16:49:26.523Z,49.40
2018-09-01T16:51:54.790Z,50.10
2018-09-01T16:54:23.075Z,49.70
2018-09-01T16:56:51.320Z,49.90
2018-09-01T16:59:19.563Z,50.10
2018-09-01T17:01:47.812Z,50.20
2018-09-01T17:04:16.095Z,50.90
2018-09-01T17:06:44.366Z,50.80
2018-09-01T17:09:12.646Z,51.30
2018-09-01T17:11:40.890Z,51.30
2018-09-01T17:14:09.156Z,51.70
2018-09-01T17:16:37.398Z,51.70
2018-09-01T17:19:05.702Z,51.90
2018-09-01T17:21:33.946Z,52.50
2018-09-01T17:24:02.275Z,52.50
2018-09-01T17:26:30.513Z,52.50
2018-09-01T17:28:58.882Z,53.10
2018-09-01T17:31:27.152Z,52.50
2018-09-01T17:33:55.400Z,52.40
2018-09-01T17:36:23.642Z,53.30
2018-09-01T17:38:51.882Z,53.10
2018-09-01T17:41:20.138Z,52.90
2018-09-01T17:43:48.387Z,53.10
2018-09-01T17:46:16.632Z,52.90
2018-09-01T17:48:44.887Z,52.60
2018-09-01T17:51:13.148Z,52.80
2018-09-01T17:53:41.446Z,52.70
2018-09-01T17:56:09.794Z,52.90
2018-09-01T17:58:38.188Z,53.00
2018-09-01T18:01:06.482Z,52.90
2018-09-01T18:03:34.823Z,53.50
2018-09-01T18:06:03.147Z,53.20
2018-09-01T18:08:32.334Z,53.80
2018-09-01T18:11:00.923Z,53.50
2018-09-01T18:13:29.195Z,53.70
2018-09-01T18:15:57.502Z,54.00
2018-09-01T18:18:25.766Z,54.10
2018-09-01T18:20:54.049Z,54.10
2018-09-01T18:23:22.323Z,54.30
2018-09-01T18:25:50.636Z,54.90
2018-09-01T18:28:18.911Z,54.40
2018-09-01T18:30:47.190Z,54.50
2018-09-01T18:33:15.562Z,54.80
2018-09-01T18:35:43.841Z,54.50
2018-09-01T18:38:12.166Z,54.90
2018-09-01T18:40:40.489Z,55.20
2018-09-01T18:43:08.748Z,55.00
2018-09-01T18:45:36.998Z,55.40
2018-09-01T18:48:05.339Z,55.50
2018-09-01T18:50:33.604Z,55.20
2018-09-01T18:53:02.101Z,55.30
2018-09-01T18:55:31.032Z,55.60
2018-09-01T18:57:59.586Z,55.60
2018-09-01T19:00:27.909Z,55.60
2018-09-01T19:02:56.353Z,56.00
2018-09-01T19:05:24.727Z,55.70
2018-09-01T19:07:53.158Z,56.20
2018-09-01T19:10:21.448Z,55.90
2018-09-01T19:12:49.759Z,56.40
2018-09-01T19:15:18.599Z,56.10
2018-09-01T19:17:46.932Z,56.20
2018-09-01T19:20:15.214Z,56.40
2018-09-01T19:22:43.507Z,56.60
2018-09-01T19:25:11.814Z,56.60
2018-09-01T19:27:40.071Z,57.30
2018-09-01T19:30:08.426Z,57.30
2018-09-01T19:32:37.303Z,57.20
2018-09-01T19:35:05.720Z,57.80
2018-09-01T19:37:34.018Z,57.20
2018-09-01T19:40:02.698Z,57.40
2018-09-01T19:42:30.963Z,57.60
2018-09-01T19:44:59.506Z,57.60
2018-09-01T19:47:27.935Z,57.80
2018-09-01T19:49:56.757Z,57.90
2018-09-01T19:52:25.142Z,58.00
2018-09-01T19:54:53.866Z,58.10
2018-09-01T19:57:22.260Z,58.30
2018-09-01T19:59:50.514Z,58.70
2018-09-01T20:02:25.487Z,58.80
2018-09-01T20:04:53.885Z,59.20
2018-09-01T20:07:22.207Z,59.10
2018-09-01T20:09:50.471Z,59.10
2018-09-01T20:12:18.731Z,59.10
2018-09-01T20:14:47.204Z,59.20
2018-09-01T20:17:15.462Z,59.60
2018-09-01T20:19:43.714Z,59.90
2018-09-01T20:22:11.976Z,61.00
2018-09-01T20:24:40.747Z,60.60
2018-09-01T20:27:09.026Z,60.50
2018-09-01T20:29:37.287Z,60.90
2018-09-01T20:32:05.814Z,60.90
2018-09-01T20:34:34.130Z,60.70
2018-09-01T20:37:02.386Z,61.50
2018-09-01T20:39:30.698Z,61.40
2018-09-01T20:41:59.010Z,61.00
2018-09-01T20:44:27.249Z,62.90
2018-09-01T20:46:55.492Z,63.30
2018-09-01T20:49:23.773Z,64.20
2018-09-01T20:51:52.124Z,64.20
2018-09-01T20:54:20.382Z,64.20
2018-09-01T20:56:48.694Z,64.70
2018-09-01T20:59:16.934Z,65.90
2018-09-01T21:01:45.446Z,65.90
2018-09-01T21:04:14.667Z,66.50
2018-09-01T21:06:42.888Z,67.00
2018-09-01T21:09:11.460Z,68.10
2018-09-01T21:11:40.553Z,68.30
2018-09-01T21:14:08.906Z,69.50
2018-09-01T21:16:37.280Z,68.50
2018-09-01T21:19:05.870Z,68.60
2018-09-01T21:21:34.263Z,69.00
2018-09-01T21:24:02.659Z,69.70
2018-09-01T21:26:30.912Z,70.50
2018-09-01T21:28:59.198Z,70.80
2018-09-01T21:31:27.541Z,71.30
2018-09-01T21:33:55.878Z,71.90
2018-09-01T21:36:24.433Z,72.60
2018-09-01T21:38:52.678Z,73.70
2018-09-01T21:41:21.094Z,73.90
2018-09-01T21:43:49.703Z,74.00
2018-09-01T21:46:17.947Z,75.10
2018-09-01T21:48:46.201Z,75.40
2018-09-01T21:51:14.443Z,75.80
2018-09-01T21:53:42.824Z,77.20
2018-09-01T21:56:11.106Z,77.60
2018-09-01T21:58:39.355Z,78.30
2018-09-01T22:01:12.971Z,79.30
2018-09-01T22:03:47.550Z,79.50
2018-09-01T22:06:16.661Z,80.40
2018-09-01T22:08:44.923Z,81.20
2018-09-01T22:11:13.181Z,81.20
2018-09-01T22:13:41.449Z,81.80
2018-09-01T22:16:09.701Z,82.80
2018-09-01T22:18:37.946Z,80.80
2018-09-01T22:21:06.308Z,82.40
2018-09-01T22:23:35.004Z,82.80
2018-09-01T22:26:03.275Z,83.80
2018-09-01T22:28:31.782Z,84.70
2018-09-01T22:31:00.046Z,84.70
2018-09-01T22:33:28.316Z,85.50
2018-09-01T22:35:56.598Z,84.70
2018-09-01T22:38:24.851Z,85.70
2018-09-01T22:40:53.655Z,84.10
2018-09-01T22:43:22.011Z,85.50
2018-09-01T22:45:50.379Z,84.50
2018-09-01T22:48:18.635Z,84.70
2018-09-01T22:50:46.971Z,83.50
2018-09-01T22:53:15.289Z,84.30
2018-09-01T22:55:43.513Z,83.90
2018-09-01T22:58:11.946Z,84.70
2018-09-01T23:00:40.307Z,85.70
2018-09-01T23:03:08.554Z,85.60
2018-09-01T23:05:36.807Z,84.00
2018-09-01T23:08:05.085Z,84.30
2018-09-01T23:10:33.343Z,84.50
2018-09-01T23:13:01.609Z,85.20
2018-09-01T23:15:29.867Z,84.60
2018-09-01T23:17:58.127Z,84.40
2018-09-01T23:20:26.418Z,84.10
2018-09-01T23:22:54.663Z,84.50
2018-09-01T23:25:22.937Z,84.40
2018-09-01T23:27:51.235Z,84.60
2018-09-01T23:30:19.507Z,86.10
2018-09-01T23:32:47.773Z,86.10
2018-09-01T23:35:16.026Z,87.20
2018-09-01T23:37:44.325Z,85.30
2018-09-01T23:40:12.578Z,85.40
2018-09-01T23:42:40.842Z,85.20
2018-09-01T23:45:09.107Z,85.90
2018-09-01T23:47:37.363Z,85.20
2018-09-01T23:50:06.822Z,86.10
2018-09-01T23:52:35.078Z,86.80
2018-09-01T23:55:03.401Z,87.80
2018-09-01T23:57:31.686Z,87.90
2018-09-01T23:59:59.946Z,87.60
